createdAt,value
2023-03-03T00:01:03.579Z,45.55
2023-03-03T00:03:31.416Z,47.80
2023-03-03T00:05:59.758Z,44.22
2023-03-03T00:08:29.078Z,47.08
2023-03-03T00:10:56.763Z,43.50
2023-03-03T00:13:27.159Z,46.88
2023-03-03T00:15:59.749Z,45.00
2023-03-03T00:18:32.430Z,42.22
2023-03-03T00:21:02.009Z,38.50
2023-03-03T00:23:38.124Z,36.08
2023-03-03T00:26:20.323Z,38.90
2023-03-03T00:28:49.523Z,38.42
2023-03-03T00:31:20.575Z,41.47
2023-03-03T00:33:54.672Z,39.72
2023-03-03T00:36:37.688Z,41.63
2023-03-03T00:39:27.842Z,39.72
2023-03-03T00:41:55.888Z,39.83
2023-03-03T00:44:41.145Z,40.95
2023-03-03T00:47:28.741Z,38.35
2023-03-03T00:50:21.223Z,37.38
2023-03-03T00:53:01.622Z,34.08
2023-03-03T00:55:31.306Z,35.10
2023-03-03T00:57:59.410Z,33.58
2023-03-03T01:00:27.217Z,36.17
2023-03-03T01:02:54.972Z,37.40
2023-03-03T01:05:22.993Z,35.75
2023-03-03T01:07:50.634Z,35.67
2023-03-03T01:10:18.522Z,36.10
2023-03-03T01:12:47.912Z,32.53
2023-03-03T01:15:16.616Z,33.22
2023-03-03T01:17:44.625Z,32.85
2023-03-03T01:20:14.563Z,34.28
2023-03-03T01:22:42.846Z,33.95
2023-03-03T01:25:11.242Z,33.10
2023-03-03T01:27:39.023Z,32.95
2023-03-03T01:30:09.646Z,32.92
2023-03-03T01:32:37.439Z,32.78
2023-03-03T01:35:06.263Z,34.10
2023-03-03T01:37:35.552Z,31.63
2023-03-03T01:40:03.320Z,32.22
2023-03-03T01:42:31.637Z,30.13
2023-03-03T01:45:26.381Z,31.92
2023-03-03T01:48:00.987Z,30.13
2023-03-03T01:50:44.744Z,30.27
2023-03-03T01:53:16.937Z,28.83
2023-03-03T01:55:46.446Z,31.35
2023-03-03T01:58:17.924Z,29.15
2023-03-03T02:00:51.555Z,22.40
2023-03-03T02:03:21.628Z,29.88
2023-03-03T02:05:50.955Z,29.38
2023-03-03T02:08:27.211Z,29.42
2023-03-03T02:10:55.869Z,29.50
2023-03-03T02:13:23.558Z,29.60
2023-03-03T02:15:52.662Z,28.33
2023-03-03T02:18:21.816Z,28.83
2023-03-03T02:20:58.597Z,30.02
2023-03-03T02:23:34.436Z,30.13
2023-03-03T02:26:09.928Z,27.85
2023-03-03T02:28:39.772Z,29.00
2023-03-03T02:31:10.962Z,29.85
2023-03-03T02:33:38.847Z,29.77
2023-03-03T02:36:07.268Z,30.40
2023-03-03T02:38:42.271Z,29.75
2023-03-03T02:41:18.263Z,27.77
2023-03-03T02:43:55.519Z,28.67
2023-03-03T02:46:23.292Z,29.35
2023-03-03T02:48:51.024Z,30.42
2023-03-03T02:51:18.784Z,29.40
2023-03-03T02:53:46.577Z,31.60
2023-03-03T02:56:15.692Z,30.17
2023-03-03T02:58:43.441Z,31.60
2023-03-03T03:01:11.263Z,31.20
2023-03-03T03:03:39.335Z,31.85
2023-03-03T03:06:07.923Z,31.38
2023-03-03T03:08:35.600Z,32.13
2023-03-03T03:11:03.421Z,32.42
2023-03-03T03:13:33.328Z,32.80
2023-03-03T03:16:01.907Z,31.90
2023-03-03T03:18:29.711Z,32.20
2023-03-03T03:20:57.513Z,31.85
2023-03-03T03:23:25.177Z,30.27
2023-03-03T03:25:52.905Z,30.08
2023-03-03T03:28:20.578Z,28.58
2023-03-03T03:30:52.834Z,28.92
2023-03-03T03:33:20.535Z,30.88
2023-03-03T03:35:48.312Z,28.73
2023-03-03T03:38:16.370Z,27.30
2023-03-03T03:40:44.673Z,27.25
2023-03-03T03:43:12.424Z,26.42
2023-03-03T03:45:40.137Z,26.75
2023-03-03T03:48:09.432Z,27.02
2023-03-03T03:50:37.638Z,27.70
2023-03-03T03:53:05.476Z,28.58
2023-03-03T03:55:33.552Z,27.73
2023-03-03T03:58:04.300Z,28.83
2023-03-03T04:00:32.105Z,28.65
2023-03-03T04:02:59.948Z,27.48
2023-03-03T04:05:29.466Z,28.52
2023-03-03T04:07:57.149Z,28.45
2023-03-03T04:10:24.857Z,29.60
2023-03-03T04:12:52.600Z,28.48
2023-03-03T04:15:20.428Z,28.50
2023-03-03T04:17:48.101Z,28.38
2023-03-03T04:20:16.626Z,28.90
2023-03-03T04:22:45.931Z,29.90
2023-03-03T04:25:19.014Z,29.42
2023-03-03T04:27:46.897Z,29.10
2023-03-03T04:30:19.497Z,30.92
2023-03-03T04:32:55.256Z,30.15
2023-03-03T04:35:23.207Z,29.73
2023-03-03T04:37:59.801Z,30.13
2023-03-03T04:40:28.198Z,30.27
2023-03-03T04:42:56.222Z,28.23
2023-03-03T04:45:24.091Z,30.30
2023-03-03T04:47:51.937Z,28.95
2023-03-03T04:50:23.334Z,31.25
2023-03-03T04:52:52.782Z,29.02
2023-03-03T04:55:20.755Z,29.38
2023-03-03T04:57:48.836Z,31.20
2023-03-03T05:00:17.386Z,30.73
2023-03-03T05:02:48.758Z,30.50
2023-03-03T05:05:16.984Z,31.38
2023-03-03T05:07:44.894Z,32.13
2023-03-03T05:10:14.485Z,31.02
2023-03-03T05:12:42.487Z,32.15
2023-03-03T05:15:11.171Z,31.45
2023-03-03T05:17:38.986Z,30.25
2023-03-03T05:20:08.555Z,30.95
2023-03-03T05:22:36.359Z,31.10
2023-03-03T05:25:04.782Z,32.65
2023-03-03T05:27:33.925Z,32.28
2023-03-03T05:30:01.748Z,30.42
2023-03-03T05:32:29.645Z,30.95
2023-03-03T05:34:59.737Z,29.40
2023-03-03T05:37:27.704Z,28.05
2023-03-03T05:39:55.476Z,27.05
2023-03-03T05:42:23.480Z,30.67
2023-03-03T05:44:52.787Z,27.52
2023-03-03T05:47:20.701Z,26.50
2023-03-03T05:49:49.031Z,27.80
2023-03-03T05:52:18.697Z,28.02
2023-03-03T05:54:46.565Z,29.20
2023-03-03T05:57:14.438Z,29.98
2023-03-03T05:59:42.366Z,32.03
2023-03-03T06:02:12.137Z,31.45
2023-03-03T06:04:40.006Z,31.38
2023-03-03T06:07:08.104Z,28.35
2023-03-03T06:09:37.050Z,30.15
2023-03-03T06:12:06.028Z,30.52
2023-03-03T06:14:34.304Z,29.48
2023-03-03T06:17:02.273Z,29.08
2023-03-03T06:19:31.535Z,27.63
2023-03-03T06:22:00.875Z,29.65
2023-03-03T06:24:30.600Z,28.38
2023-03-03T06:26:58.589Z,28.95
2023-03-03T06:29:26.660Z,27.65
2023-03-03T06:31:55.039Z,27.90
2023-03-03T06:34:22.959Z,29.20
2023-03-03T06:36:52.416Z,28.27
2023-03-03T06:39:20.466Z,25.55
2023-03-03T06:41:48.287Z,27.02
2023-03-03T06:44:16.207Z,26.13
2023-03-03T06:46:43.957Z,27.33
2023-03-03T06:49:11.752Z,28.10
2023-03-03T06:51:40.504Z,28.08
2023-03-03T06:54:13.673Z,30.70
2023-03-03T06:56:42.918Z,29.23
2023-03-03T06:59:15.801Z,27.38
2023-03-03T07:01:44.844Z,28.00
2023-03-03T07:04:23.365Z,28.13
2023-03-03T07:06:51.389Z,26.88
2023-03-03T07:09:24.984Z,28.13
2023-03-03T07:11:53.285Z,27.55
2023-03-03T07:14:22.177Z,30.30
2023-03-03T07:16:55.183Z,29.67
2023-03-03T07:19:31.916Z,29.70
2023-03-03T07:21:59.750Z,26.90
2023-03-03T07:24:30.809Z,27.67
2023-03-03T07:27:07.802Z,25.38
2023-03-03T07:29:35.678Z,24.77
2023-03-03T07:32:04.445Z,26.25
2023-03-03T07:34:42.565Z,26.05
2023-03-03T07:37:17.573Z,24.58
2023-03-03T07:39:49.464Z,22.83
2023-03-03T07:42:22.889Z,24.13
2023-03-03T07:44:54.037Z,25.80
2023-03-03T07:47:25.008Z,25.60
2023-03-03T07:49:54.341Z,24.23
2023-03-03T07:52:27.087Z,24.77
2023-03-03T07:54:58.758Z,29.23
2023-03-03T07:57:28.641Z,25.17
2023-03-03T08:00:02.198Z,26.00
2023-03-03T08:02:46.841Z,25.90
2023-03-03T08:05:35.282Z,24.27
2023-03-03T08:08:17.875Z,22.83
2023-03-03T08:10:49.492Z,21.38
2023-03-03T08:13:20.393Z,21.42
2023-03-03T08:15:51.700Z,20.13
2023-03-03T08:18:24.866Z,20.63
2023-03-03T08:20:55.532Z,23.05
2023-03-03T08:23:23.558Z,19.88
2023-03-03T08:25:53.364Z,19.38
2023-03-03T08:28:22.537Z,18.77
2023-03-03T08:30:50.811Z,18.17
2023-03-03T08:33:19.532Z,18.90
2023-03-03T08:35:48.343Z,18.45
2023-03-03T08:38:20.165Z,18.83
2023-03-03T08:40:49.217Z,18.70
2023-03-03T08:43:21.560Z,18.40
2023-03-03T08:45:51.273Z,17.80
2023-03-03T08:48:19.988Z,18.70
2023-03-03T08:50:48.606Z,18.60
2023-03-03T08:53:17.831Z,19.80
2023-03-03T08:55:46.193Z,18.95
2023-03-03T08:58:14.770Z,20.08
2023-03-03T09:00:45.637Z,20.02
2023-03-03T09:03:14.373Z,22.42
2023-03-03T09:05:42.540Z,25.73
2023-03-03T09:08:10.772Z,24.20
2023-03-03T09:10:39.639Z,25.35
2023-03-03T09:13:13.720Z,25.77
2023-03-03T09:15:43.144Z,24.02
2023-03-03T09:18:19.532Z,30.30
2023-03-03T09:20:49.027Z,35.22
2023-03-03T09:23:32.136Z,35.33
2023-03-03T09:26:13.644Z,33.08
2023-03-03T09:28:43.646Z,26.02
2023-03-03T09:31:25.499Z,25.58
2023-03-03T09:33:57.589Z,28.10
2023-03-03T09:36:27.703Z,32.67
2023-03-03T09:38:56.914Z,30.45
2023-03-03T09:41:48.664Z,27.52
2023-03-03T09:44:55.470Z,29.60
2023-03-03T09:47:48.531Z,32.45
2023-03-03T09:50:27.935Z,34.97
2023-03-03T09:53:10.716Z,30.52
2023-03-03T09:55:44.629Z,27.48
2023-03-03T09:58:32.662Z,29.30
2023-03-03T10:01:11.374Z,30.13
2023-03-03T10:03:54.129Z,26.77
2023-03-03T10:06:28.839Z,25.30
2023-03-03T10:09:28.897Z,26.58
2023-03-03T10:12:02.710Z,25.20
2023-03-03T10:14:50.600Z,20.88
2023-03-03T10:17:27.435Z,23.50
2023-03-03T10:20:13.407Z,21.83
2023-03-03T10:22:50.502Z,20.83
2023-03-03T10:25:27.582Z,20.00
2023-03-03T10:28:07.975Z,17.65
2023-03-03T10:31:02.021Z,18.98
2023-03-03T10:33:39.226Z,18.55
2023-03-03T10:36:30.669Z,18.67
2023-03-03T10:39:13.825Z,17.85
2023-03-03T10:42:16.189Z,18.63
2023-03-03T10:44:55.037Z,19.38
2023-03-03T10:47:48.831Z,17.13
2023-03-03T10:50:27.648Z,18.20
2023-03-03T10:53:11.921Z,18.80
2023-03-03T10:55:50.100Z,19.35
2023-03-03T10:58:47.446Z,21.17
2023-03-03T11:01:27.497Z,17.13
2023-03-03T11:04:44.252Z,22.52
2023-03-03T11:07:19.972Z,20.48
2023-03-03T11:10:01.858Z,19.02
2023-03-03T11:12:41.022Z,19.40
2023-03-03T11:15:22.789Z,22.58
2023-03-03T11:18:02.387Z,20.40
2023-03-03T11:20:38.806Z,22.30
2023-03-03T11:23:25.516Z,24.25
2023-03-03T11:26:07.558Z,22.65
2023-03-03T11:29:02.329Z,22.42
2023-03-03T11:31:39.517Z,19.85
2023-03-03T11:34:16.909Z,22.35
2023-03-03T11:36:50.906Z,21.60
2023-03-03T11:39:21.635Z,20.67
2023-03-03T11:42:02.377Z,20.95
2023-03-03T11:44:34.661Z,21.45
2023-03-03T11:47:07.331Z,20.73
2023-03-03T11:49:41.903Z,23.48
2023-03-03T11:52:23.548Z,20.55
2023-03-03T11:54:55.677Z,23.30
2023-03-03T11:57:33.868Z,21.73
2023-03-03T12:00:09.472Z,20.05
2023-03-03T12:03:13.161Z,16.40
2023-03-03T12:05:51.249Z,18.08
2023-03-03T12:08:32.612Z,24.05
2023-03-03T12:11:07.229Z,18.58
2023-03-03T12:13:50.770Z,16.95
2023-03-03T12:16:32.188Z,15.77
2023-03-03T12:19:16.880Z,17.60
2023-03-03T12:22:05.815Z,14.40
2023-03-03T12:24:48.267Z,21.27
2023-03-03T12:27:23.776Z,18.55
2023-03-03T12:30:05.232Z,20.08
2023-03-03T12:32:52.188Z,18.90
2023-03-03T12:35:29.298Z,19.67
2023-03-03T12:38:05.618Z,17.50
2023-03-03T12:40:35.704Z,17.38
2023-03-03T12:43:27.202Z,17.42
2023-03-03T12:46:06.627Z,18.20
2023-03-03T12:48:41.730Z,17.88
2023-03-03T12:51:19.610Z,13.57
2023-03-03T12:54:03.435Z,13.65
2023-03-03T12:56:37.753Z,13.52
2023-03-03T12:59:14.290Z,15.65
2023-03-03T13:01:58.920Z,16.17
2023-03-03T13:04:37.045Z,15.30
2023-03-03T13:07:11.931Z,16.95
2023-03-03T13:09:54.540Z,19.05
2023-03-03T13:12:33.715Z,19.58
2023-03-03T13:15:08.956Z,17.80
2023-03-03T13:17:44.194Z,16.52
2023-03-03T13:20:20.894Z,17.27
2023-03-03T13:22:56.670Z,17.55
2023-03-03T13:25:37.028Z,17.42
2023-03-03T13:28:17.079Z,15.50
2023-03-03T13:30:49.710Z,14.35
2023-03-03T13:33:25.990Z,14.18
2023-03-03T13:35:57.223Z,13.75
2023-03-03T13:38:29.161Z,13.85
2023-03-03T13:41:05.561Z,14.10
2023-03-03T13:43:39.423Z,14.40
2023-03-03T13:46:16.966Z,13.27
2023-03-03T13:49:00.098Z,14.10
2023-03-03T13:51:40.368Z,14.35
2023-03-03T13:54:17.928Z,13.82
2023-03-03T13:57:05.795Z,14.07
2023-03-03T13:59:43.854Z,14.57
2023-03-03T14:02:31.807Z,13.57
2023-03-03T14:05:03.310Z,13.73
2023-03-03T14:07:41.845Z,13.57
2023-03-03T14:10:17.045Z,15.02
2023-03-03T14:12:51.566Z,14.30
2023-03-03T14:15:27.753Z,14.88
2023-03-03T14:18:09.377Z,14.63
2023-03-03T14:20:42.438Z,15.05
2023-03-03T14:23:17.505Z,14.85
2023-03-03T14:25:59.463Z,14.38
2023-03-03T14:28:32.122Z,14.48
2023-03-03T14:31:10.590Z,15.00
2023-03-03T14:33:38.482Z,14.07
2023-03-03T14:36:16.131Z,14.65
2023-03-03T14:38:51.737Z,14.65
2023-03-03T14:41:36.311Z,15.27
2023-03-03T14:44:25.442Z,14.82
2023-03-03T14:47:18.579Z,14.48
2023-03-03T14:49:46.897Z,14.32
2023-03-03T14:52:25.323Z,15.48
2023-03-03T14:54:55.279Z,14.20
2023-03-03T14:57:42.064Z,14.75
2023-03-03T15:00:36.266Z,14.10
2023-03-03T15:03:28.672Z,13.27
2023-03-03T15:05:59.266Z,13.95
2023-03-03T15:08:35.495Z,13.75
2023-03-03T15:11:19.722Z,14.15
2023-03-03T15:13:48.563Z,13.00
2023-03-03T15:16:23.400Z,13.43
2023-03-03T15:19:40.316Z,13.95
2023-03-03T15:22:22.233Z,13.77
2023-03-03T15:25:06.414Z,14.35
2023-03-03T15:27:41.149Z,14.27
2023-03-03T15:30:24.048Z,13.55
2023-03-03T15:33:04.047Z,14.00
2023-03-03T16:58:15.730Z,13.30
2023-03-03T17:01:01.039Z,13.88
2023-03-03T17:03:40.478Z,14.20
2023-03-03T18:34:09.455Z,17.88
2023-03-03T18:36:52.932Z,18.13
2023-03-03T18:39:38.617Z,18.73
2023-03-03T18:42:12.139Z,17.98
2023-03-03T18:44:40.525Z,19.25
2023-03-03T18:47:11.102Z,19.23
2023-03-03T18:50:06.741Z,18.25
2023-03-03T18:52:39.009Z,17.95
2023-03-03T18:55:28.761Z,18.55
2023-03-03T18:58:53.159Z,18.00
2023-03-03T19:01:43.470Z,17.15
2023-03-03T19:04:26.430Z,16.40
2023-03-03T19:07:18.994Z,16.48
2023-03-03T19:09:52.654Z,15.70
2023-03-03T19:12:46.907Z,16.15
2023-03-03T19:15:52.275Z,15.10
2023-03-03T19:18:23.952Z,14.73
2023-03-03T19:20:58.238Z,14.30
2023-03-03T19:23:51.393Z,13.88
2023-03-03T19:26:57.943Z,11.75
2023-03-03T19:29:55.366Z,12.07
2023-03-03T19:32:38.566Z,10.30
2023-03-03T19:35:26.784Z,7.97
2023-03-03T19:38:07.497Z,9.05
2023-03-03T19:40:44.153Z,10.43
2023-03-03T19:43:22.246Z,9.60
2023-03-03T19:46:05.884Z,8.65
2023-03-03T19:48:41.610Z,8.55
2023-03-03T19:51:16.734Z,9.93
2023-03-03T19:53:55.113Z,9.50
2023-03-03T19:56:35.744Z,7.20
2023-03-03T19:59:18.723Z,6.72
2023-03-03T20:02:03.667Z,5.90
2023-03-03T20:04:46.629Z,6.05
2023-03-03T20:07:29.109Z,5.63
2023-03-03T20:10:08.732Z,6.57
2023-03-03T20:12:55.104Z,6.78
2023-03-03T20:15:30.105Z,6.63
2023-03-03T20:18:16.426Z,6.78
2023-03-03T20:21:08.076Z,6.65
2023-03-03T20:23:48.562Z,6.28
2023-03-03T20:26:25.797Z,6.10
2023-03-03T20:29:13.543Z,6.20
2023-03-03T20:31:50.718Z,5.55
2023-03-03T20:34:29.520Z,6.50
2023-03-03T20:37:03.715Z,6.07
2023-03-03T20:39:50.549Z,6.60
2023-03-03T20:42:35.479Z,5.90
2023-03-03T20:45:18.354Z,5.65
2023-03-03T20:47:54.589Z,5.65
2023-03-03T20:50:30.571Z,5.85
2023-03-03T20:53:08.129Z,5.88
2023-03-03T20:55:44.641Z,6.75
2023-03-03T20:58:22.001Z,8.45
2023-03-03T21:00:57.941Z,9.55
2023-03-03T21:03:34.230Z,10.27
2023-03-03T21:06:09.434Z,11.05
2023-03-03T21:08:56.155Z,12.68
2023-03-03T21:11:27.105Z,12.20
2023-03-03T21:13:57.357Z,12.77
2023-03-03T21:16:40.500Z,11.43
2023-03-03T21:19:13.809Z,12.10
2023-03-03T21:21:45.823Z,11.93
2023-03-03T21:24:21.170Z,9.30
2023-03-03T21:26:55.146Z,9.52
2023-03-03T21:29:28.088Z,9.00
2023-03-03T21:31:59.939Z,7.28
2023-03-03T21:34:31.378Z,7.75
2023-03-03T21:37:02.154Z,6.53
2023-03-03T21:39:36.635Z,6.03
2023-03-03T21:42:06.821Z,6.30
2023-03-03T21:44:41.895Z,7.05
2023-03-03T21:47:11.839Z,5.78
2023-03-03T21:49:43.749Z,5.75
2023-03-03T21:52:12.726Z,4.82
2023-03-03T21:54:41.099Z,5.10
2023-03-03T21:57:11.065Z,5.55
2023-03-03T21:59:40.537Z,6.10
2023-03-03T22:02:09.198Z,5.07
2023-03-03T22:04:39.737Z,4.88
2023-03-03T22:07:08.086Z,4.50
2023-03-03T22:09:36.524Z,4.38
2023-03-03T22:12:05.223Z,4.75
2023-03-03T22:14:33.289Z,4.63
2023-03-03T22:17:03.083Z,4.72
2023-03-03T22:19:31.392Z,4.43
2023-03-03T22:21:59.683Z,4.55
2023-03-03T22:24:31.964Z,4.57
2023-03-03T22:26:59.953Z,4.80
2023-03-03T22:29:28.398Z,4.53
2023-03-03T22:31:56.392Z,4.38
2023-03-03T22:34:26.214Z,4.75
2023-03-03T22:36:54.364Z,4.93
2023-03-03T22:39:22.262Z,4.53
2023-03-03T22:41:50.459Z,4.47
2023-03-03T22:44:18.634Z,4.63
2023-03-03T22:46:46.812Z,4.90
2023-03-03T22:49:14.824Z,4.40
2023-03-03T22:51:44.545Z,4.88
2023-03-03T22:54:12.817Z,4.55
2023-03-03T22:56:40.804Z,4.60
2023-03-03T22:59:08.967Z,5.25
2023-03-03T23:01:37.090Z,4.43
2023-03-03T23:04:05.260Z,4.88
2023-03-03T23:06:33.152Z,4.88
2023-03-03T23:09:02.436Z,5.32
2023-03-03T23:11:30.568Z,4.72
2023-03-03T23:13:58.443Z,5.13
2023-03-03T23:16:26.977Z,4.60
2023-03-03T23:18:54.998Z,4.57
2023-03-03T23:21:23.039Z,4.80
2023-03-03T23:23:51.025Z,4.55
2023-03-03T23:26:20.666Z,4.70
2023-03-03T23:28:48.637Z,4.20
2023-03-03T23:31:16.574Z,4.45
2023-03-03T23:33:44.454Z,4.55
2023-03-03T23:36:12.591Z,5.05
2023-03-03T23:38:43.547Z,4.53
2023-03-03T23:41:11.623Z,4.88
2023-03-03T23:43:41.150Z,4.53
2023-03-03T23:46:09.139Z,4.97
2023-03-03T23:48:37.427Z,4.70
2023-03-03T23:51:05.748Z,5.57
2023-03-03T23:53:33.720Z,5.10
2023-03-03T23:56:01.808Z,4.75
2023-03-03T23:58:29.830Z,4.97
